sensor_id;sensor_type;location;lat;lon;timestamp;P1;durP1;ratioP1;P2;durP2;ratioP2
73850;SDS011;62190;51.548;5.688;2023-08-24T00:01:21;10.68;;;8.08;;
73850;SDS011;62190;51.548;5.688;2023-08-24T00:03:51;12.53;;;8.18;;
73850;SDS011;62190;51.548;5.688;2023-08-24T00:06:19;12.15;;;8.80;;
73850;SDS011;62190;51.548;5.688;2023-08-24T00:08:46;12.65;;;8.65;;
73850;SDS011;62190;51.548;5.688;2023-08-24T00:11:16;13.75;;;8.05;;
73850;SDS011;62190;51.548;5.688;2023-08-24T00:13:43;11.93;;;8.23;;
73850;SDS011;62190;51.548;5.688;2023-08-24T00:16:19;16.37;;;8.88;;
73850;SDS011;62190;51.548;5.688;2023-08-24T00:18:46;13.65;;;8.25;;
73850;SDS011;62190;51.548;5.688;2023-08-24T00:21:14;13.78;;;8.18;;
73850;SDS011;62190;51.548;5.688;2023-08-24T00:23:48;13.93;;;9.20;;
73850;SDS011;62190;51.548;5.688;2023-08-24T00:26:16;14.63;;;9.48;;
73850;SDS011;62190;51.548;5.688;2023-08-24T00:28:44;13.30;;;9.85;;
73850;SDS011;62190;51.548;5.688;2023-08-24T00:31:11;10.28;;;8.03;;
73850;SDS011;62190;51.548;5.688;2023-08-24T00:33:40;14.00;;;9.23;;
73850;SDS011;62190;51.548;5.688;2023-08-24T00:36:07;14.07;;;9.13;;
73850;SDS011;62190;51.548;5.688;2023-08-24T00:38:35;16.35;;;10.72;;
73850;SDS011;62190;51.548;5.688;2023-08-24T00:41:04;17.25;;;9.98;;
73850;SDS011;62190;51.548;5.688;2023-08-24T00:43:34;17.95;;;11.73;;
73850;SDS011;62190;51.548;5.688;2023-08-24T00:46:01;15.10;;;10.88;;
73850;SDS011;62190;51.548;5.688;2023-08-24T00:48:30;14.30;;;9.75;;
73850;SDS011;62190;51.548;5.688;2023-08-24T00:51:00;13.55;;;10.00;;
73850;SDS011;62190;51.548;5.688;2023-08-24T00:53:28;14.55;;;10.38;;
73850;SDS011;62190;51.548;5.688;2023-08-24T00:55:56;17.67;;;11.00;;
73850;SDS011;62190;51.548;5.688;2023-08-24T00:58:23;17.25;;;10.93;;
73850;SDS011;62190;51.548;5.688;2023-08-24T01:00:52;23.90;;;13.18;;
73850;SDS011;62190;51.548;5.688;2023-08-24T01:03:22;18.95;;;13.50;;
73850;SDS011;62190;51.548;5.688;2023-08-24T01:05:49;16.67;;;11.63;;
73850;SDS011;62190;51.548;5.688;2023-08-24T01:08:19;17.12;;;12.73;;
73850;SDS011;62190;51.548;5.688;2023-08-24T01:13:27;26.15;;;15.05;;
73850;SDS011;62190;51.548;5.688;2023-08-24T01:16:08;25.37;;;16.27;;
73850;SDS011;62190;51.548;5.688;2023-08-24T01:18:33;19.77;;;13.98;;
73850;SDS011;62190;51.548;5.688;2023-08-24T01:21:03;24.25;;;13.95;;
73850;SDS011;62190;51.548;5.688;2023-08-24T01:23:33;17.60;;;12.82;;
73850;SDS011;62190;51.548;5.688;2023-08-24T01:26:14;20.43;;;14.58;;
73850;SDS011;62190;51.548;5.688;2023-08-24T01:28:47;27.25;;;16.20;;
73850;SDS011;62190;51.548;5.688;2023-08-24T01:31:15;24.98;;;14.55;;
73850;SDS011;62190;51.548;5.688;2023-08-24T01:33:43;23.45;;;14.80;;
73850;SDS011;62190;51.548;5.688;2023-08-24T01:36:14;26.82;;;15.70;;
73850;SDS011;62190;51.548;5.688;2023-08-24T01:38:46;27.60;;;17.65;;
73850;SDS011;62190;51.548;5.688;2023-08-24T01:41:16;22.13;;;16.35;;
73850;SDS011;62190;51.548;5.688;2023-08-24T01:43:46;26.23;;;16.20;;
73850;SDS011;62190;51.548;5.688;2023-08-24T01:46:18;23.22;;;17.00;;
73850;SDS011;62190;51.548;5.688;2023-08-24T01:48:49;25.97;;;17.82;;
73850;SDS011;62190;51.548;5.688;2023-08-24T01:51:17;27.52;;;18.25;;
73850;SDS011;62190;51.548;5.688;2023-08-24T01:53:45;29.80;;;18.75;;
73850;SDS011;62190;51.548;5.688;2023-08-24T01:56:14;31.42;;;16.80;;
73850;SDS011;62190;51.548;5.688;2023-08-24T01:58:43;27.27;;;17.32;;
73850;SDS011;62190;51.548;5.688;2023-08-24T02:01:12;25.90;;;17.73;;
73850;SDS011;62190;51.548;5.688;2023-08-24T02:03:39;23.52;;;17.00;;
73850;SDS011;62190;51.548;5.688;2023-08-24T02:06:07;25.25;;;17.75;;
73850;SDS011;62190;51.548;5.688;2023-08-24T02:08:36;24.72;;;17.73;;
73850;SDS011;62190;51.548;5.688;2023-08-24T02:11:03;27.60;;;18.30;;
73850;SDS011;62190;51.548;5.688;2023-08-24T02:13:30;27.37;;;17.48;;
73850;SDS011;62190;51.548;5.688;2023-08-24T02:16:07;25.15;;;17.48;;
73850;SDS011;62190;51.548;5.688;2023-08-24T02:18:36;24.23;;;16.50;;
73850;SDS011;62190;51.548;5.688;2023-08-24T02:21:08;23.90;;;16.60;;
73850;SDS011;62190;51.548;5.688;2023-08-24T02:23:37;28.17;;;18.17;;
73850;SDS011;62190;51.548;5.688;2023-08-24T02:26:05;24.75;;;17.23;;
73850;SDS011;62190;51.548;5.688;2023-08-24T02:28:32;24.32;;;16.65;;
73850;SDS011;62190;51.548;5.688;2023-08-24T02:31:02;21.17;;;15.53;;
73850;SDS011;62190;51.548;5.688;2023-08-24T02:33:33;20.92;;;15.13;;
73850;SDS011;62190;51.548;5.688;2023-08-24T02:36:00;24.70;;;15.72;;
73850;SDS011;62190;51.548;5.688;2023-08-24T02:38:29;19.48;;;15.05;;
73850;SDS011;62190;51.548;5.688;2023-08-24T02:41:00;19.30;;;14.28;;
73850;SDS011;62190;51.548;5.688;2023-08-24T02:43:28;21.65;;;14.85;;
73850;SDS011;62190;51.548;5.688;2023-08-24T02:45:59;18.75;;;13.43;;
73850;SDS011;62190;51.548;5.688;2023-08-24T02:48:34;25.02;;;15.45;;
73850;SDS011;62190;51.548;5.688;2023-08-24T02:51:03;22.40;;;14.43;;
73850;SDS011;62190;51.548;5.688;2023-08-24T02:53:32;20.10;;;13.45;;
73850;SDS011;62190;51.548;5.688;2023-08-24T02:55:59;18.67;;;13.18;;
73850;SDS011;62190;51.548;5.688;2023-08-24T02:58:26;20.37;;;14.00;;
73850;SDS011;62190;51.548;5.688;2023-08-24T03:00:56;19.92;;;14.83;;
73850;SDS011;62190;51.548;5.688;2023-08-24T03:03:24;22.30;;;15.60;;
73850;SDS011;62190;51.548;5.688;2023-08-24T03:05:56;19.70;;;14.33;;
73850;SDS011;62190;51.548;5.688;2023-08-24T03:08:25;22.17;;;15.90;;
73850;SDS011;62190;51.548;5.688;2023-08-24T03:10:53;25.40;;;16.87;;
73850;SDS011;62190;51.548;5.688;2023-08-24T03:13:20;21.25;;;15.63;;
73850;SDS011;62190;51.548;5.688;2023-08-24T03:15:52;28.20;;;17.42;;
73850;SDS011;62190;51.548;5.688;2023-08-24T03:18:21;26.95;;;17.55;;
73850;SDS011;62190;51.548;5.688;2023-08-24T03:20:48;26.52;;;17.75;;
73850;SDS011;62190;51.548;5.688;2023-08-24T03:23:16;31.90;;;21.10;;
73850;SDS011;62190;51.548;5.688;2023-08-24T03:25:44;28.20;;;21.23;;
73850;SDS011;62190;51.548;5.688;2023-08-24T03:28:12;35.50;;;20.05;;
73850;SDS011;62190;51.548;5.688;2023-08-24T03:30:45;31.17;;;21.95;;
73850;SDS011;62190;51.548;5.688;2023-08-24T03:33:13;34.83;;;22.27;;
73850;SDS011;62190;51.548;5.688;2023-08-24T03:35:41;34.80;;;21.37;;
73850;SDS011;62190;51.548;5.688;2023-08-24T03:38:08;33.23;;;21.73;;
73850;SDS011;62190;51.548;5.688;2023-08-24T03:40:37;34.00;;;22.58;;
73850;SDS011;62190;51.548;5.688;2023-08-24T03:43:05;33.38;;;22.50;;
73850;SDS011;62190;51.548;5.688;2023-08-24T03:45:34;39.42;;;24.00;;
73850;SDS011;62190;51.548;5.688;2023-08-24T03:48:03;39.98;;;24.55;;
73850;SDS011;62190;51.548;5.688;2023-08-24T03:50:30;41.02;;;25.52;;
73850;SDS011;62190;51.548;5.688;2023-08-24T03:52:58;43.17;;;26.65;;
73850;SDS011;62190;51.548;5.688;2023-08-24T03:55:25;39.73;;;25.60;;
73850;SDS011;62190;51.548;5.688;2023-08-24T03:57:53;45.78;;;30.97;;
73850;SDS011;62190;51.548;5.688;2023-08-24T04:00:23;53.20;;;31.60;;
73850;SDS011;62190;51.548;5.688;2023-08-24T04:02:53;44.05;;;29.15;;
73850;SDS011;62190;51.548;5.688;2023-08-24T04:05:22;46.23;;;30.40;;
73850;SDS011;62190;51.548;5.688;2023-08-24T04:07:51;46.73;;;29.70;;
73850;SDS011;62190;51.548;5.688;2023-08-24T04:10:20;43.90;;;30.77;;
73850;SDS011;62190;51.548;5.688;2023-08-24T04:12:50;43.95;;;28.67;;
73850;SDS011;62190;51.548;5.688;2023-08-24T04:15:17;43.90;;;29.37;;
73850;SDS011;62190;51.548;5.688;2023-08-24T04:17:47;46.35;;;29.37;;
73850;SDS011;62190;51.548;5.688;2023-08-24T04:20:14;47.43;;;29.27;;
73850;SDS011;62190;51.548;5.688;2023-08-24T04:22:43;49.35;;;30.97;;
73850;SDS011;62190;51.548;5.688;2023-08-24T04:25:12;44.55;;;30.37;;
73850;SDS011;62190;51.548;5.688;2023-08-24T04:27:41;43.13;;;30.10;;
73850;SDS011;62190;51.548;5.688;2023-08-24T04:30:10;45.65;;;29.35;;
73850;SDS011;62190;51.548;5.688;2023-08-24T04:32:39;42.53;;;29.98;;
73850;SDS011;62190;51.548;5.688;2023-08-24T04:35:08;41.48;;;28.95;;
73850;SDS011;62190;51.548;5.688;2023-08-24T04:37:38;42.15;;;28.40;;
73850;SDS011;62190;51.548;5.688;2023-08-24T04:40:05;43.30;;;30.05;;
73850;SDS011;62190;51.548;5.688;2023-08-24T04:42:36;44.18;;;29.37;;
73850;SDS011;62190;51.548;5.688;2023-08-24T04:45:06;38.83;;;27.77;;
73850;SDS011;62190;51.548;5.688;2023-08-24T04:47:33;40.70;;;28.62;;
73850;SDS011;62190;51.548;5.688;2023-08-24T04:50:04;45.65;;;29.65;;
73850;SDS011;62190;51.548;5.688;2023-08-24T04:52:35;52.73;;;31.90;;
73850;SDS011;62190;51.548;5.688;2023-08-24T04:55:06;46.23;;;30.77;;
73850;SDS011;62190;51.548;5.688;2023-08-24T04:57:35;41.55;;;29.23;;
73850;SDS011;62190;51.548;5.688;2023-08-24T05:00:02;46.13;;;32.08;;
73850;SDS011;62190;51.548;5.688;2023-08-24T05:02:31;48.28;;;31.80;;
73850;SDS011;62190;51.548;5.688;2023-08-24T05:04:58;47.40;;;31.20;;
73850;SDS011;62190;51.548;5.688;2023-08-24T05:07:26;44.38;;;30.27;;
73850;SDS011;62190;51.548;5.688;2023-08-24T05:09:54;49.50;;;29.77;;
73850;SDS011;62190;51.548;5.688;2023-08-24T05:12:21;46.25;;;30.20;;
73850;SDS011;62190;51.548;5.688;2023-08-24T05:14:49;40.63;;;29.48;;
73850;SDS011;62190;51.548;5.688;2023-08-24T05:17:16;48.38;;;32.30;;
73850;SDS011;62190;51.548;5.688;2023-08-24T05:19:45;44.20;;;29.85;;
73850;SDS011;62190;51.548;5.688;2023-08-24T05:22:12;45.50;;;30.05;;
73850;SDS011;62190;51.548;5.688;2023-08-24T05:24:40;47.85;;;31.57;;
73850;SDS011;62190;51.548;5.688;2023-08-24T05:27:07;42.30;;;31.48;;
73850;SDS011;62190;51.548;5.688;2023-08-24T05:29:34;43.80;;;30.72;;
73850;SDS011;62190;51.548;5.688;2023-08-24T05:32:04;45.30;;;29.48;;
73850;SDS011;62190;51.548;5.688;2023-08-24T05:34:31;36.40;;;27.10;;
73850;SDS011;62190;51.548;5.688;2023-08-24T05:37:00;34.75;;;25.32;;
73850;SDS011;62190;51.548;5.688;2023-08-24T05:39:27;29.30;;;22.13;;
73850;SDS011;62190;51.548;5.688;2023-08-24T05:41:54;27.40;;;20.05;;
73850;SDS011;62190;51.548;5.688;2023-08-24T05:44:22;25.17;;;18.52;;
73850;SDS011;62190;51.548;5.688;2023-08-24T05:46:49;23.18;;;16.95;;
73850;SDS011;62190;51.548;5.688;2023-08-24T05:49:17;21.33;;;14.78;;
73850;SDS011;62190;51.548;5.688;2023-08-24T05:51:44;22.10;;;16.23;;
73850;SDS011;62190;51.548;5.688;2023-08-24T05:54:11;25.00;;;16.25;;
73850;SDS011;62190;51.548;5.688;2023-08-24T05:56:39;25.02;;;16.93;;
73850;SDS011;62190;51.548;5.688;2023-08-24T05:59:06;23.70;;;15.98;;
73850;SDS011;62190;51.548;5.688;2023-08-24T06:01:33;23.35;;;15.30;;
73850;SDS011;62190;51.548;5.688;2023-08-24T06:04:02;18.73;;;15.28;;
73850;SDS011;62190;51.548;5.688;2023-08-24T06:06:31;19.15;;;15.05;;
73850;SDS011;62190;51.548;5.688;2023-08-24T06:08:59;23.42;;;16.15;;
73850;SDS011;62190;51.548;5.688;2023-08-24T06:11:26;23.27;;;15.53;;
73850;SDS011;62190;51.548;5.688;2023-08-24T06:13:53;19.48;;;14.87;;
73850;SDS011;62190;51.548;5.688;2023-08-24T06:16:21;19.32;;;15.03;;
73850;SDS011;62190;51.548;5.688;2023-08-24T06:18:48;18.07;;;14.18;;
73850;SDS011;62190;51.548;5.688;2023-08-24T06:21:16;17.30;;;13.68;;
73850;SDS011;62190;51.548;5.688;2023-08-24T06:23:43;20.37;;;14.35;;
73850;SDS011;62190;51.548;5.688;2023-08-24T06:26:12;17.55;;;13.70;;
73850;SDS011;62190;51.548;5.688;2023-08-24T06:28:39;18.37;;;14.03;;
73850;SDS011;62190;51.548;5.688;2023-08-24T06:31:07;17.75;;;13.18;;
73850;SDS011;62190;51.548;5.688;2023-08-24T06:33:34;19.07;;;13.60;;
73850;SDS011;62190;51.548;5.688;2023-08-24T06:36:02;17.40;;;12.85;;
73850;SDS011;62190;51.548;5.688;2023-08-24T06:38:32;16.02;;;13.08;;
73850;SDS011;62190;51.548;5.688;2023-08-24T06:41:02;14.58;;;12.20;;
73850;SDS011;62190;51.548;5.688;2023-08-24T06:43:30;16.87;;;12.63;;
73850;SDS011;62190;51.548;5.688;2023-08-24T06:45:57;14.50;;;11.40;;
73850;SDS011;62190;51.548;5.688;2023-08-24T06:48:24;14.25;;;10.78;;
73850;SDS011;62190;51.548;5.688;2023-08-24T06:50:52;15.28;;;12.33;;
73850;SDS011;62190;51.548;5.688;2023-08-24T06:53:19;17.85;;;12.37;;
73850;SDS011;62190;51.548;5.688;2023-08-24T06:55:53;13.05;;;11.15;;
73850;SDS011;62190;51.548;5.688;2023-08-24T06:58:23;17.50;;;12.47;;
73850;SDS011;62190;51.548;5.688;2023-08-24T07:00:51;14.85;;;12.95;;
73850;SDS011;62190;51.548;5.688;2023-08-24T07:03:19;18.07;;;11.70;;
73850;SDS011;62190;51.548;5.688;2023-08-24T07:05:50;15.63;;;11.83;;
73850;SDS011;62190;51.548;5.688;2023-08-24T07:08:17;15.90;;;10.20;;
73850;SDS011;62190;51.548;5.688;2023-08-24T07:10:45;15.40;;;11.43;;
73850;SDS011;62190;51.548;5.688;2023-08-24T07:13:14;14.87;;;10.80;;
73850;SDS011;62190;51.548;5.688;2023-08-24T07:15:42;15.55;;;11.03;;
73850;SDS011;62190;51.548;5.688;2023-08-24T07:18:12;11.97;;;10.13;;
73850;SDS011;62190;51.548;5.688;2023-08-24T07:20:42;16.07;;;11.73;;
73850;SDS011;62190;51.548;5.688;2023-08-24T07:23:11;14.65;;;11.22;;
73850;SDS011;62190;51.548;5.688;2023-08-24T07:25:38;13.30;;;10.60;;
73850;SDS011;62190;51.548;5.688;2023-08-24T07:28:06;11.73;;;9.60;;
73850;SDS011;62190;51.548;5.688;2023-08-24T07:30:35;12.60;;;10.28;;
73850;SDS011;62190;51.548;5.688;2023-08-24T07:33:04;11.05;;;9.55;;
73850;SDS011;62190;51.548;5.688;2023-08-24T07:35:34;14.43;;;9.80;;
73850;SDS011;62190;51.548;5.688;2023-08-24T07:38:01;11.73;;;9.05;;
73850;SDS011;62190;51.548;5.688;2023-08-24T07:40:30;12.03;;;8.83;;
73850;SDS011;62190;51.548;5.688;2023-08-24T07:42:57;12.15;;;9.25;;
73850;SDS011;62190;51.548;5.688;2023-08-24T07:45:26;13.22;;;10.05;;
73850;SDS011;62190;51.548;5.688;2023-08-24T07:47:53;14.15;;;9.18;;
73850;SDS011;62190;51.548;5.688;2023-08-24T07:50:21;15.32;;;8.68;;
73850;SDS011;62190;51.548;5.688;2023-08-24T07:52:48;12.85;;;8.65;;
73850;SDS011;62190;51.548;5.688;2023-08-24T07:55:15;13.60;;;8.95;;
73850;SDS011;62190;51.548;5.688;2023-08-24T07:57:43;12.98;;;8.63;;
73850;SDS011;62190;51.548;5.688;2023-08-24T08:00:10;12.25;;;9.38;;
73850;SDS011;62190;51.548;5.688;2023-08-24T08:02:39;11.83;;;7.78;;
73850;SDS011;62190;51.548;5.688;2023-08-24T08:05:07;11.80;;;8.90;;
73850;SDS011;62190;51.548;5.688;2023-08-24T08:07:36;10.68;;;7.30;;
73850;SDS011;62190;51.548;5.688;2023-08-24T08:10:03;11.85;;;8.08;;
73850;SDS011;62190;51.548;5.688;2023-08-24T08:12:32;13.18;;;8.80;;
73850;SDS011;62190;51.548;5.688;2023-08-24T08:15:00;13.32;;;8.08;;
73850;SDS011;62190;51.548;5.688;2023-08-24T08:17:27;13.75;;;8.35;;
73850;SDS011;62190;51.548;5.688;2023-08-24T08:19:56;11.83;;;7.75;;
73850;SDS011;62190;51.548;5.688;2023-08-24T08:22:23;8.23;;;6.60;;
73850;SDS011;62190;51.548;5.688;2023-08-24T08:24:51;10.53;;;8.00;;
73850;SDS011;62190;51.548;5.688;2023-08-24T08:27:20;10.23;;;6.95;;
73850;SDS011;62190;51.548;5.688;2023-08-24T08:29:47;10.43;;;7.12;;
73850;SDS011;62190;51.548;5.688;2023-08-24T08:32:15;9.55;;;7.03;;
73850;SDS011;62190;51.548;5.688;2023-08-24T08:34:42;8.95;;;6.33;;
73850;SDS011;62190;51.548;5.688;2023-08-24T08:37:09;10.93;;;6.58;;
73850;SDS011;62190;51.548;5.688;2023-08-24T08:39:36;9.88;;;6.08;;
73850;SDS011;62190;51.548;5.688;2023-08-24T08:42:04;9.53;;;7.00;;
73850;SDS011;62190;51.548;5.688;2023-08-24T08:44:31;10.32;;;5.70;;
73850;SDS011;62190;51.548;5.688;2023-08-24T08:46:59;12.03;;;6.17;;
73850;SDS011;62190;51.548;5.688;2023-08-24T08:49:26;12.75;;;6.10;;
73850;SDS011;62190;51.548;5.688;2023-08-24T08:51:55;10.50;;;6.20;;
73850;SDS011;62190;51.548;5.688;2023-08-24T08:54:22;9.55;;;6.95;;
73850;SDS011;62190;51.548;5.688;2023-08-24T08:56:50;11.93;;;7.97;;
73850;SDS011;62190;51.548;5.688;2023-08-24T08:59:18;10.10;;;6.95;;
73850;SDS011;62190;51.548;5.688;2023-08-24T09:01:45;11.38;;;7.17;;
73850;SDS011;62190;51.548;5.688;2023-08-24T09:04:13;9.40;;;6.65;;
73850;SDS011;62190;51.548;5.688;2023-08-24T09:06:41;8.78;;;6.25;;
73850;SDS011;62190;51.548;5.688;2023-08-24T09:09:10;10.03;;;7.25;;
73850;SDS011;62190;51.548;5.688;2023-08-24T09:11:37;9.65;;;6.33;;
73850;SDS011;62190;51.548;5.688;2023-08-24T09:14:05;13.45;;;8.93;;
73850;SDS011;62190;51.548;5.688;2023-08-24T09:16:32;13.58;;;9.18;;
73850;SDS011;62190;51.548;5.688;2023-08-24T09:19:00;9.83;;;7.12;;
73850;SDS011;62190;51.548;5.688;2023-08-24T09:21:30;13.68;;;8.58;;
73850;SDS011;62190;51.548;5.688;2023-08-24T09:23:58;11.33;;;7.62;;
73850;SDS011;62190;51.548;5.688;2023-08-24T09:26:28;13.78;;;8.13;;
73850;SDS011;62190;51.548;5.688;2023-08-24T09:28:56;11.65;;;8.23;;
73850;SDS011;62190;51.548;5.688;2023-08-24T09:31:28;10.82;;;7.85;;
73850;SDS011;62190;51.548;5.688;2023-08-24T09:34:05;11.25;;;8.05;;
73850;SDS011;62190;51.548;5.688;2023-08-24T09:36:33;11.65;;;8.55;;
73850;SDS011;62190;51.548;5.688;2023-08-24T09:39:01;8.43;;;7.35;;
73850;SDS011;62190;51.548;5.688;2023-08-24T09:41:40;10.45;;;6.47;;
73850;SDS011;62190;51.548;5.688;2023-08-24T09:44:10;9.80;;;7.47;;
73850;SDS011;62190;51.548;5.688;2023-08-24T09:46:40;9.25;;;6.50;;
73850;SDS011;62190;51.548;5.688;2023-08-24T09:49:10;9.90;;;7.45;;
73850;SDS011;62190;51.548;5.688;2023-08-24T09:51:38;10.90;;;6.97;;
73850;SDS011;62190;51.548;5.688;2023-08-24T09:54:10;12.33;;;7.00;;
73850;SDS011;62190;51.548;5.688;2023-08-24T09:56:39;11.83;;;6.78;;
73850;SDS011;62190;51.548;5.688;2023-08-24T09:59:11;9.23;;;6.60;;
73850;SDS011;62190;51.548;5.688;2023-08-24T10:01:46;9.90;;;6.28;;
73850;SDS011;62190;51.548;5.688;2023-08-24T10:04:14;11.22;;;6.15;;
73850;SDS011;62190;51.548;5.688;2023-08-24T10:06:44;9.13;;;6.22;;
73850;SDS011;62190;51.548;5.688;2023-08-24T10:09:14;9.28;;;4.85;;
73850;SDS011;62190;51.548;5.688;2023-08-24T10:11:46;10.60;;;5.47;;
73850;SDS011;62190;51.548;5.688;2023-08-24T10:14:21;7.92;;;4.42;;
73850;SDS011;62190;51.548;5.688;2023-08-24T10:16:47;7.33;;;3.92;;
73850;SDS011;62190;51.548;5.688;2023-08-24T10:19:16;6.22;;;3.00;;
73850;SDS011;62190;51.548;5.688;2023-08-24T10:21:44;10.23;;;3.47;;
73850;SDS011;62190;51.548;5.688;2023-08-24T10:24:12;7.35;;;3.62;;
73850;SDS011;62190;51.548;5.688;2023-08-24T10:26:39;6.20;;;3.65;;
73850;SDS011;62190;51.548;5.688;2023-08-24T10:29:07;5.08;;;3.02;;
73850;SDS011;62190;51.548;5.688;2023-08-24T10:31:34;12.15;;;3.25;;
73850;SDS011;62190;51.548;5.688;2023-08-24T10:34:03;5.95;;;3.15;;
73850;SDS011;62190;51.548;5.688;2023-08-24T10:36:31;8.23;;;3.87;;
73850;SDS011;62190;51.548;5.688;2023-08-24T10:39:03;7.92;;;3.80;;
73850;SDS011;62190;51.548;5.688;2023-08-24T10:41:45;6.92;;;3.15;;
73850;SDS011;62190;51.548;5.688;2023-08-24T10:44:25;8.20;;;3.80;;
73850;SDS011;62190;51.548;5.688;2023-08-24T10:47:18;7.37;;;3.60;;
73850;SDS011;62190;51.548;5.688;2023-08-24T10:55:25;7.53;;;3.80;;
73850;SDS011;62190;51.548;5.688;2023-08-24T10:57:59;4.53;;;3.45;;
73850;SDS011;62190;51.548;5.688;2023-08-24T11:00:27;6.62;;;3.77;;
73850;SDS011;62190;51.548;5.688;2023-08-24T11:02:55;5.60;;;3.10;;
73850;SDS011;62190;51.548;5.688;2023-08-24T11:05:24;7.58;;;4.15;;
73850;SDS011;62190;51.548;5.688;2023-08-24T11:08:01;8.23;;;3.50;;
73850;SDS011;62190;51.548;5.688;2023-08-24T11:13:15;5.45;;;3.30;;
73850;SDS011;62190;51.548;5.688;2023-08-24T11:15:45;6.30;;;3.50;;
73850;SDS011;62190;51.548;5.688;2023-08-24T11:20:52;10.28;;;3.80;;
73850;SDS011;62190;51.548;5.688;2023-08-24T11:23:24;9.03;;;3.10;;
73850;SDS011;62190;51.548;5.688;2023-08-24T11:25:52;5.92;;;3.20;;
73850;SDS011;62190;51.548;5.688;2023-08-24T11:28:23;5.62;;;3.20;;
73850;SDS011;62190;51.548;5.688;2023-08-24T11:30:52;7.08;;;3.47;;
73850;SDS011;62190;51.548;5.688;2023-08-24T11:33:28;11.03;;;4.40;;
73850;SDS011;62190;51.548;5.688;2023-08-24T11:35:57;5.90;;;3.30;;
73850;SDS011;62190;51.548;5.688;2023-08-24T11:38:34;6.55;;;4.15;;
73850;SDS011;62190;51.548;5.688;2023-08-24T11:41:15;10.40;;;3.90;;
73850;SDS011;62190;51.548;5.688;2023-08-24T11:43:44;7.00;;;3.77;;
73850;SDS011;62190;51.548;5.688;2023-08-24T11:46:13;7.37;;;3.67;;
73850;SDS011;62190;51.548;5.688;2023-08-24T11:48:43;6.30;;;3.77;;
73850;SDS011;62190;51.548;5.688;2023-08-24T11:51:11;7.30;;;4.37;;
73850;SDS011;62190;51.548;5.688;2023-08-24T11:53:44;6.53;;;3.17;;
73850;SDS011;62190;51.548;5.688;2023-08-24T11:56:13;4.57;;;3.70;;
73850;SDS011;62190;51.548;5.688;2023-08-24T11:58:42;10.03;;;4.22;;
73850;SDS011;62190;51.548;5.688;2023-08-24T12:01:12;7.28;;;3.85;;
73850;SDS011;62190;51.548;5.688;2023-08-24T12:03:39;8.00;;;3.85;;
73850;SDS011;62190;51.548;5.688;2023-08-24T12:06:10;9.68;;;4.30;;
73850;SDS011;62190;51.548;5.688;2023-08-24T12:08:42;9.35;;;4.40;;
73850;SDS011;62190;51.548;5.688;2023-08-24T12:11:18;8.20;;;4.28;;
73850;SDS011;62190;51.548;5.688;2023-08-24T12:13:49;7.62;;;4.45;;
73850;SDS011;62190;51.548;5.688;2023-08-24T12:16:19;6.60;;;4.40;;
73850;SDS011;62190;51.548;5.688;2023-08-24T12:18:48;12.13;;;4.45;;
73850;SDS011;62190;51.548;5.688;2023-08-24T12:21:18;8.53;;;4.85;;
73850;SDS011;62190;51.548;5.688;2023-08-24T12:23:55;9.68;;;5.28;;
73850;SDS011;62190;51.548;5.688;2023-08-24T12:26:26;6.58;;;4.35;;
73850;SDS011;62190;51.548;5.688;2023-08-24T12:29:03;7.80;;;4.75;;
73850;SDS011;62190;51.548;5.688;2023-08-24T12:31:28;7.30;;;4.83;;
73850;SDS011;62190;51.548;5.688;2023-08-24T12:34:05;8.38;;;4.58;;
73850;SDS011;62190;51.548;5.688;2023-08-24T12:36:35;7.35;;;4.25;;
73850;SDS011;62190;51.548;5.688;2023-08-24T12:39:04;6.83;;;4.42;;
73850;SDS011;62190;51.548;5.688;2023-08-24T12:41:36;6.15;;;4.45;;
73850;SDS011;62190;51.548;5.688;2023-08-24T12:44:03;8.48;;;4.28;;
73850;SDS011;62190;51.548;5.688;2023-08-24T12:46:34;7.87;;;5.33;;
73850;SDS011;62190;51.548;5.688;2023-08-24T12:49:01;7.15;;;4.53;;
73850;SDS011;62190;51.548;5.688;2023-08-24T12:51:29;8.78;;;4.60;;
73850;SDS011;62190;51.548;5.688;2023-08-24T12:53:56;6.85;;;4.60;;
73850;SDS011;62190;51.548;5.688;2023-08-24T12:56:23;8.03;;;4.05;;
73850;SDS011;62190;51.548;5.688;2023-08-24T12:58:51;8.03;;;4.40;;
73850;SDS011;62190;51.548;5.688;2023-08-24T13:01:19;5.87;;;4.15;;
73850;SDS011;62190;51.548;5.688;2023-08-24T13:03:47;6.03;;;4.22;;
73850;SDS011;62190;51.548;5.688;2023-08-24T13:06:14;8.18;;;3.80;;
73850;SDS011;62190;51.548;5.688;2023-08-24T13:08:41;6.05;;;4.25;;
73850;SDS011;62190;51.548;5.688;2023-08-24T13:11:09;9.08;;;3.70;;
73850;SDS011;62190;51.548;5.688;2023-08-24T13:13:40;6.92;;;4.15;;
73850;SDS011;62190;51.548;5.688;2023-08-24T13:16:07;6.15;;;4.05;;
73850;SDS011;62190;51.548;5.688;2023-08-24T13:18:34;9.08;;;3.77;;
73850;SDS011;62190;51.548;5.688;2023-08-24T13:21:04;6.80;;;3.27;;
73850;SDS011;62190;51.548;5.688;2023-08-24T13:23:30;6.12;;;3.40;;
73850;SDS011;62190;51.548;5.688;2023-08-24T13:25:59;6.03;;;3.05;;
73850;SDS011;62190;51.548;5.688;2023-08-24T13:28:27;9.15;;;3.80;;
73850;SDS011;62190;51.548;5.688;2023-08-24T13:30:55;5.10;;;2.92;;
73850;SDS011;62190;51.548;5.688;2023-08-24T13:33:22;5.85;;;3.35;;
73850;SDS011;62190;51.548;5.688;2023-08-24T13:35:49;4.80;;;2.90;;
73850;SDS011;62190;51.548;5.688;2023-08-24T13:38:17;4.80;;;3.45;;
73850;SDS011;62190;51.548;5.688;2023-08-24T13:40:44;6.25;;;2.90;;
73850;SDS011;62190;51.548;5.688;2023-08-24T13:43:11;7.58;;;2.87;;
73850;SDS011;62190;51.548;5.688;2023-08-24T13:45:39;7.72;;;3.12;;
73850;SDS011;62190;51.548;5.688;2023-08-24T13:48:06;6.85;;;3.22;;
73850;SDS011;62190;51.548;5.688;2023-08-24T13:50:34;5.30;;;3.17;;
73850;SDS011;62190;51.548;5.688;2023-08-24T13:53:01;6.90;;;3.58;;
73850;SDS011;62190;51.548;5.688;2023-08-24T13:55:29;6.72;;;3.27;;
73850;SDS011;62190;51.548;5.688;2023-08-24T13:57:57;6.50;;;3.00;;
73850;SDS011;62190;51.548;5.688;2023-08-24T14:00:25;7.55;;;3.10;;
73850;SDS011;62190;51.548;5.688;2023-08-24T14:02:53;9.58;;;3.42;;
73850;SDS011;62190;51.548;5.688;2023-08-24T14:05:20;6.67;;;3.17;;
73850;SDS011;62190;51.548;5.688;2023-08-24T14:07:47;8.50;;;3.05;;
73850;SDS011;62190;51.548;5.688;2023-08-24T14:10:15;7.92;;;3.22;;
73850;SDS011;62190;51.548;5.688;2023-08-24T14:12:42;8.98;;;3.60;;
73850;SDS011;62190;51.548;5.688;2023-08-24T14:15:10;6.67;;;3.33;;
73850;SDS011;62190;51.548;5.688;2023-08-24T14:17:37;5.03;;;2.27;;
73850;SDS011;62190;51.548;5.688;2023-08-24T14:20:05;5.12;;;2.27;;
73850;SDS011;62190;51.548;5.688;2023-08-24T14:22:34;7.30;;;3.40;;
73850;SDS011;62190;51.548;5.688;2023-08-24T14:25:01;5.50;;;2.85;;
73850;SDS011;62190;51.548;5.688;2023-08-24T14:27:29;6.87;;;3.20;;
73850;SDS011;62190;51.548;5.688;2023-08-24T14:29:56;5.75;;;2.83;;
73850;SDS011;62190;51.548;5.688;2023-08-24T14:32:23;6.00;;;2.72;;
73850;SDS011;62190;51.548;5.688;2023-08-24T14:34:50;5.03;;;2.87;;
73850;SDS011;62190;51.548;5.688;2023-08-24T14:37:18;5.03;;;2.70;;
73850;SDS011;62190;51.548;5.688;2023-08-24T14:39:45;8.28;;;2.72;;
73850;SDS011;62190;51.548;5.688;2023-08-24T14:42:12;6.03;;;3.52;;
73850;SDS011;62190;51.548;5.688;2023-08-24T14:44:39;7.25;;;3.17;;
73850;SDS011;62190;51.548;5.688;2023-08-24T14:47:07;7.72;;;3.27;;
73850;SDS011;62190;51.548;5.688;2023-08-24T14:49:34;7.55;;;3.80;;
73850;SDS011;62190;51.548;5.688;2023-08-24T14:52:01;6.62;;;3.47;;
73850;SDS011;62190;51.548;5.688;2023-08-24T14:54:29;5.40;;;3.05;;
73850;SDS011;62190;51.548;5.688;2023-08-24T14:56:56;5.08;;;2.62;;